Flight Track Log - Related Links

Times and Time Zones

All times are in EDT time to prevent confusion due to time zone crossing. See the VRT51 flight status page for this flight to view local times or setup timezone preferences in your user account.

Time Position Orientation Groundspeed Altitude Reporting Facility
EDT Latitude Longitude Course Direction KTS MPH feet Rate Location/Type
Wed 09:25:28 AM 36.1000 -86.6833 149° Southeast 174 200 1,300  Level Nashville TRACON
Wed 09:26:46 AM 36.0333 -86.6333 149° Southeast 265 305 4,200 2,696 Climbing Nashville TRACON
Wed 09:27:46 AM 36.0333 -86.5500 90° East 273 314 7,500 3,045 Climbing Nashville TRACON
Wed 09:28:58 AM 36.0397 -86.4219 86° East 315 362 10,900 2,500 Climbing Memphis Center
Wed 09:29:58 AM 36.0422 -86.3064 88° East 326 375 13,000 1,750 Climbing Memphis Center
Wed 09:30:58 AM 36.0428 -86.1958 90° East 347 399 14,400 1,600 Climbing Memphis Center
Wed 09:31:58 AM 36.0469 -86.0700 88° East 361 415 16,200 1,700 Climbing Memphis Center
Wed 09:32:58 AM 36.0464 -85.9389 90° East 373 429 17,800 1,745 Climbing Memphis Center
Wed 09:34:43 AM 36.0411 -85.6797 91° East 395 455 21,000 1,782 Climbing Atlanta Center
Wed 09:35:43 AM 36.0306 -85.5228 95° East 427 491 22,700 1,700 Climbing Atlanta Center
Wed 09:36:43 AM 36.0200 -85.3583 94° East 463 533 24,400 1,700 Climbing Atlanta Center
Wed 09:37:43 AM 36.0069 -85.1886 95° East 485 558 26,100 1,700 Climbing Atlanta Center
Wed 09:38:43 AM 35.9731 -85.0239 104° East 491 565 27,800 1,600 Climbing Atlanta Center
Wed 09:39:43 AM 35.9283 -84.8722 110° East 491 565 29,300 1,600 Climbing Atlanta Center
Wed 09:40:43 AM 35.8814 -84.7078 109° East 503 579 31,000 1,700 Climbing Atlanta Center
Wed 09:41:43 AM 35.8342 -84.5483 110° East 503 579 32,700 1,700 Climbing Atlanta Center
Wed 09:42:43 AM 35.7867 -84.3869 110° East 503 579 34,400 1,150 Climbing Atlanta Center
Wed 09:43:43 AM 35.7369 -84.2231 110° East 503 579 35,000 300 Climbing Atlanta Center
Wed 09:44:43 AM 35.6869 -84.0517 110° East 514 592 35,000 100 Level Atlanta Center
Wed 09:45:43 AM 35.6347 -83.8803 111° Southeast 525 604 35,200 850 Climbing Atlanta Center
Wed 09:46:43 AM 35.5842 -83.7067 110° East 532 612 36,700 900 Climbing Atlanta Center
Wed 09:47:43 AM 35.5317 -83.5361 111° Southeast 526 605 37,000 150 Climbing Atlanta Center
Wed 09:48:43 AM 35.4806 -83.3628 110° East 526 605 37,000 100 Level Atlanta Center
Wed 09:49:43 AM 35.4253 -83.1925 112° Southeast 531 611 37,200 800 Climbing Atlanta Center
Wed 09:50:43 AM 35.3739 -83.0225 110° East 531 611 38,600 900 Climbing Atlanta Center
Wed 09:51:43 AM 35.3181 -82.8372 110° East 524 603 39,000 200 Climbing Atlanta Center
Wed 09:52:43 AM 35.2642 -82.6678 111° Southeast 529 609 39,000  Level Atlanta Center
Wed 09:53:43 AM 35.2186 -82.5158 110° East 529 609 39,000  Level Atlanta Center
Wed 09:54:43 AM 35.1597 -82.3289 111° Southeast 529 609 39,000  Level Atlanta Center
Wed 09:55:43 AM 35.1117 -82.1778 111° Southeast 534 615 39,000  Level Atlanta Center
Wed 09:56:43 AM 35.0567 -82.0089 112° Southeast 528 608 39,000 -400 Level Atlanta Center
Wed 09:57:43 AM 35.0078 -81.8350 109° East 533 613 38,200 -839 Descending Atlanta Center
Wed 10:01:29 AM 34.8572 -81.1672 105° East 532 612 35,000 -674 Descending Jacksonville Center
Wed 10:02:28 AM 34.8172 -80.9936 106° East 538 619 35,000  Level Jacksonville Center
Wed 10:03:28 AM 34.7769 -80.8250 106° East 520 598 35,000  Level Jacksonville Center
Wed 10:04:29 AM 34.7386 -80.6542 105° East 525 604 35,000  Level Jacksonville Center
Wed 10:05:28 AM 34.7000 -80.4808 105° East 525 604 35,000 -151 Level Jacksonville Center
Wed 10:06:28 AM 34.6550 -80.3081 108° East 525 604 34,700 -893 Descending Jacksonville Center
Wed 10:07:29 AM 34.5953 -80.1536 115° Southeast 524 603 33,200 -1,550 Descending Jacksonville Center
Wed 10:08:28 AM 34.5111 -80.0303 130° Southeast 488 562 31,600 -1,916 Descending Jacksonville Center
Wed 10:09:28 AM 34.4267 -79.8969 127° Southeast 488 562 29,400 -2,579 Descending Jacksonville Center
Wed 10:10:29 AM 34.3872 -79.7350 106° East 485 558 26,400 -2,650 Descending Jacksonville Center
Wed 10:11:28 AM 34.3481 -79.5906 108° East 493 567 24,100 -1,210 Descending Jacksonville Center
Wed 10:12:28 AM 34.3067 -79.4386 108° East 488 562 24,000 -350 Descending Jacksonville Center
Wed 10:13:28 AM 34.2628 -79.2922 110° East 474 545 23,400 -500 Descending Jacksonville Center
Wed 10:14:28 AM 34.2519 -79.1319 95° East 468 539 23,000 -900 Descending Jacksonville Center
Wed 10:15:28 AM 34.2450 -78.9739 93° East 468 539 21,600 -1,828 Descending Jacksonville Center
Wed 10:16:59 AM 34.2119 -78.7361 99° East 478 550 18,400 -2,026 Descending Washington Center
Wed 10:17:59 AM 34.1717 -78.5939 109° East 461 531 16,500 -1,932 Descending Washington Center
Wed 10:18:57 AM 34.1481 -78.4550 102° East 451 519 14,600 -1,966 Descending Washington Center
Wed 10:19:58 AM 34.1803 -78.3231 74° East 396 456 12,600 -2,050 Descending Washington Center
Wed 10:20:57 AM 34.1619 -78.2147 102° East 344 396 10,500 -2,500 Descending Washington Center
Wed 10:21:58 AM 34.1047 -78.1553 139° Southeast 277 319 7,600 -2,876 Descending Washington Center
Wed 10:22:58 AM 34.0728 -78.0839 118° Southeast 268 308 4,700 -2,319 Descending Washington Center
Wed 10:23:57 AM 34.1194 -78.0503 31° Northeast 173 199 3,000 -1,361 Descending Washington Center
Wed 10:24:57 AM 34.1700 -78.0342 15° North 149 171 2,000 -496 Descending Washington Center
Wed 10:25:58 AM 34.1978 -78.0025 43° Northeast 149 171 2,000 -347 Level Washington Center
Wed 10:26:58 AM 34.2211 -77.9706 49° Northeast 131 151 1,300 -645 Descending Washington Center
Wed 10:27:59 AM 34.2428 -77.9408 49° Northeast 118 136 700 -590 Descending Washington Center

Login

Don't have an account? Register now (free) for customized features, flight alerts, and more!